Roberts Field
KRDM : now visible

Airfield :











YOU CAN JOIN US ON...

 
LOGIN :

Register | Disclaimer

   EN    FR    IT 

 









Legend :    VFR   Marginal VFR   IFR   Intensive IFR   Very Intensive IFR
Visi :
Ceiling :
>= 8 km
>= 3000ft
5 to 8 km
1000 to 3000 ft
1500m to 5 km
500 to 1000 ft
800 to 1500m
200 to 500 ft
< 800m
< 200 ft
Symbols :   Thunderstorms  Fog  Heavy snow  Heavy precipitations  Wind > 20 kt







- Airport Elevation : 3080 ft
- IATA code : RDM


KRDM - Roberts Field

CURRENT METAR :
  • 181056Z AUTO 00000KT 10SM CLR 08/06 A2983 RMK AO2 SLP094 T00780056

EXPIRED METARs :
  • 180956Z AUTO 12003KT 10SM BKN070 OVC085 09/07 A2983 RMK AO2 SLP093 T00890072
  • 180856Z AUTO 12003KT 10SM OVC037 09/07 A2984 RMK AO2 RAB14E55 SLP097 P0002 60002 T00940072 53006
  • 180844Z AUTO 00000KT 10SM -RA SCT027 OVC035 10/07 A2984 RMK AO2 RAB14 P0002 T01000072
  • 180827Z AUTO 33005KT 6SM -RA BKN026 BKN035 OVC055 10/07 A2985 RMK AO2 RAB14 P0002 T01000072

TAF KRDM
Valid from the 18 at 06:00 until the 19 at 06:00 UTC


180520Z 1806/1906 21008KT P6SM -SHRA BKN070
FM181900 30009KT P6SM -SHRA BKN060
No reported NOTAMs for that airfield.



MET'MAP, your aeronautical weather chart ! - Copyright ORBIFLY December 2007 - Disclaimer

ORBIFLY MET'MAP TEAM :

Programming & Development : Alexandra Zaïnal
Concept & Development : Baudouin d'Aumeries
Co-Development & Prog : Marc-Olivier Méhu
Technical & hardware support : Manuel Goepfert

Contact : metmap@orbifly.com




SOURCES & CREDITS :

   NOAA       Earth
Advisory